createdAt,value
2018-08-16T00:01:14.400Z,29.45
2018-08-16T00:03:47.894Z,29.75
2018-08-16T00:06:21.375Z,29.45
2018-08-16T00:08:54.836Z,29.50
2018-08-16T00:11:28.287Z,29.20
2018-08-16T00:14:01.744Z,29.87
2018-08-16T00:16:35.223Z,29.65
2018-08-16T00:19:08.667Z,29.98
2018-08-16T00:21:42.099Z,29.07
2018-08-16T00:24:15.541Z,28.95
2018-08-16T00:26:49.204Z,28.95
2018-08-16T00:29:22.640Z,29.52
2018-08-16T00:31:56.181Z,29.90
2018-08-16T00:34:29.648Z,30.37
2018-08-16T00:37:03.116Z,30.37
2018-08-16T00:39:36.551Z,30.43
2018-08-16T00:42:10.014Z,30.68
2018-08-16T00:44:43.529Z,30.30
2018-08-16T00:47:17.003Z,29.67
2018-08-16T00:49:50.497Z,30.02
2018-08-16T00:52:23.956Z,29.95
2018-08-16T00:54:57.391Z,29.65
2018-08-16T00:57:30.848Z,30.17
2018-08-16T01:00:05.405Z,30.27
2018-08-16T01:02:38.858Z,30.90
2018-08-16T01:05:12.667Z,30.68
2018-08-16T01:07:46.107Z,31.65
2018-08-16T01:10:19.535Z,30.50
2018-08-16T01:12:52.943Z,31.27
2018-08-16T01:15:26.346Z,30.90
2018-08-16T01:17:59.788Z,31.42
2018-08-16T01:20:33.213Z,30.97
2018-08-16T01:23:06.701Z,30.80
2018-08-16T01:25:40.132Z,30.00
2018-08-16T01:28:13.523Z,29.92
2018-08-16T01:30:46.990Z,30.23
2018-08-16T01:33:20.421Z,30.45
2018-08-16T01:35:53.863Z,31.10
2018-08-16T01:38:27.259Z,29.65
2018-08-16T01:41:00.686Z,29.67
2018-08-16T01:43:34.087Z,29.70
2018-08-16T01:46:07.511Z,29.25
2018-08-16T01:48:40.906Z,29.67
2018-08-16T01:51:14.334Z,29.45
2018-08-16T01:53:47.723Z,29.67
2018-08-16T01:56:21.123Z,30.10
2018-08-16T01:58:54.511Z,29.55
2018-08-16T02:01:27.919Z,29.75
2018-08-16T02:04:01.354Z,29.67
2018-08-16T02:06:34.770Z,30.23
2018-08-16T02:09:10.612Z,30.00
2018-08-16T02:11:44.145Z,29.37
2018-08-16T02:14:17.911Z,29.37
2018-08-16T02:16:51.840Z,28.95
2018-08-16T02:19:25.246Z,28.47
2018-08-16T02:21:58.658Z,29.63
2018-08-16T02:24:32.052Z,29.57
2018-08-16T02:27:05.815Z,30.20
2018-08-16T02:29:39.223Z,30.00
2018-08-16T02:32:12.708Z,29.70
2018-08-16T02:34:46.102Z,29.80
2018-08-16T02:37:19.510Z,29.45
2018-08-16T02:39:52.903Z,30.60
2018-08-16T02:42:26.347Z,30.45
2018-08-16T02:44:59.735Z,30.72
2018-08-16T02:47:33.179Z,30.23
2018-08-16T02:50:06.921Z,30.48
2018-08-16T02:52:40.332Z,29.95
2018-08-16T02:55:13.729Z,29.65
2018-08-16T02:57:47.131Z,30.20
2018-08-16T03:00:20.530Z,30.57
2018-08-16T03:02:53.943Z,30.32
2018-08-16T03:05:27.331Z,30.62
2018-08-16T03:08:00.744Z,31.05
2018-08-16T03:10:34.128Z,30.40
2018-08-16T03:13:07.551Z,30.17
2018-08-16T03:15:40.953Z,30.52
2018-08-16T03:18:14.364Z,30.55
2018-08-16T03:20:47.790Z,31.17
2018-08-16T03:23:21.198Z,30.40
2018-08-16T03:25:54.595Z,30.90
2018-08-16T03:28:28.016Z,30.50
2018-08-16T03:31:01.432Z,30.68
2018-08-16T03:33:34.844Z,30.05
2018-08-16T03:36:08.256Z,30.55
2018-08-16T03:38:42.756Z,30.17
2018-08-16T03:41:16.172Z,30.12
2018-08-16T03:43:49.606Z,30.30
2018-08-16T03:46:23.051Z,29.85
2018-08-16T03:48:56.496Z,30.75
2018-08-16T03:51:29.909Z,29.75
2018-08-16T03:54:03.409Z,30.23
2018-08-16T03:56:36.846Z,29.90
2018-08-16T03:59:10.322Z,30.05
2018-08-16T04:01:43.741Z,29.63
2018-08-16T04:04:17.191Z,30.55
2018-08-16T04:06:50.609Z,30.43
2018-08-16T04:09:24.099Z,30.30
2018-08-16T04:11:57.576Z,30.48
2018-08-16T04:14:31.088Z,30.27
2018-08-16T04:17:04.531Z,30.40
2018-08-16T04:19:38.147Z,29.52
2018-08-16T04:22:11.607Z,30.37
2018-08-16T04:24:45.043Z,30.25
2018-08-16T04:27:21.582Z,30.17
2018-08-16T04:29:55.028Z,30.40
2018-08-16T04:32:28.471Z,30.40
2018-08-16T04:35:02.020Z,29.90
2018-08-16T04:37:35.410Z,30.17
2018-08-16T04:40:08.859Z,29.77
2018-08-16T04:42:42.278Z,30.12
2018-08-16T04:45:15.775Z,29.95
2018-08-16T04:47:49.215Z,30.00
2018-08-16T04:50:22.655Z,30.80
2018-08-16T04:52:56.122Z,30.27
2018-08-16T04:55:29.635Z,29.77
2018-08-16T04:58:03.112Z,30.17
2018-08-16T05:00:36.605Z,30.02
2018-08-16T05:03:10.093Z,30.50
2018-08-16T05:05:43.599Z,30.37
2018-08-16T05:08:17.039Z,30.35
2018-08-16T05:10:50.629Z,29.72
2018-08-16T05:13:24.050Z,29.87
2018-08-16T05:15:57.605Z,30.25
2018-08-16T05:18:31.016Z,29.90
2018-08-16T05:21:04.481Z,30.05
2018-08-16T05:23:38.614Z,31.10
2018-08-16T05:26:12.108Z,30.37
2018-08-16T05:28:45.529Z,31.00
2018-08-16T05:31:18.984Z,30.82
2018-08-16T05:33:52.543Z,31.37
2018-08-16T05:36:26.023Z,31.00
2018-08-16T05:38:59.452Z,32.30
2018-08-16T05:41:32.904Z,31.65
2018-08-16T05:44:06.382Z,30.95
2018-08-16T05:46:39.895Z,31.10
2018-08-16T05:49:13.318Z,31.12
2018-08-16T05:51:46.768Z,31.68
2018-08-16T05:54:20.255Z,30.85
2018-08-16T05:56:53.721Z,31.12
2018-08-16T05:59:27.216Z,31.10
2018-08-16T06:02:00.949Z,31.75
2018-08-16T06:04:34.403Z,31.35
2018-08-16T06:07:07.890Z,30.88
2018-08-16T06:09:41.341Z,30.72
2018-08-16T06:12:14.843Z,30.40
2018-08-16T06:14:48.293Z,31.45
2018-08-16T06:17:21.786Z,30.52
2018-08-16T06:19:55.234Z,30.23
2018-08-16T06:22:28.740Z,30.43
2018-08-16T06:25:02.183Z,31.25
2018-08-16T06:27:35.663Z,31.02
2018-08-16T06:30:13.270Z,31.40
2018-08-16T06:32:46.986Z,31.48
2018-08-16T06:35:20.449Z,31.12
2018-08-16T06:37:53.920Z,31.10
2018-08-16T06:40:27.647Z,30.23
2018-08-16T06:43:01.092Z,31.05
2018-08-16T06:45:34.544Z,31.17
2018-08-16T06:48:08.069Z,31.33
2018-08-16T06:50:41.517Z,30.97
2018-08-16T06:53:17.129Z,30.72
2018-08-16T06:55:50.567Z,30.85
2018-08-16T06:58:24.087Z,31.07
2018-08-16T07:00:57.471Z,31.30
2018-08-16T07:03:30.966Z,31.30
2018-08-16T07:06:04.428Z,31.77
2018-08-16T07:08:37.926Z,31.97
2018-08-16T07:11:11.388Z,31.52
2018-08-16T07:13:44.891Z,32.88
2018-08-16T07:16:18.577Z,31.75
2018-08-16T07:18:52.108Z,32.67
2018-08-16T07:21:25.488Z,32.15
2018-08-16T07:23:58.938Z,31.85
2018-08-16T07:26:32.391Z,32.30
2018-08-16T07:29:06.023Z,31.60
2018-08-16T07:31:39.685Z,32.75
2018-08-16T07:34:13.139Z,32.93
2018-08-16T07:36:46.570Z,32.23
2018-08-16T07:39:20.007Z,32.33
2018-08-16T07:41:53.555Z,32.73
2018-08-16T07:44:27.117Z,32.67
2018-08-16T07:47:00.555Z,31.82
2018-08-16T07:49:34.110Z,31.75
2018-08-16T07:52:07.734Z,31.82
2018-08-16T07:54:41.145Z,30.97
2018-08-16T07:57:14.619Z,31.77
2018-08-16T07:59:48.154Z,32.67
2018-08-16T08:02:21.610Z,30.75
2018-08-16T08:04:55.074Z,31.87
2018-08-16T08:07:28.522Z,33.25
2018-08-16T08:10:02.023Z,31.95
2018-08-16T08:12:35.459Z,31.30
2018-08-16T08:15:11.327Z,31.35
2018-08-16T08:17:44.833Z,31.45
2018-08-16T08:20:18.342Z,31.90
2018-08-16T08:22:51.818Z,31.37
2018-08-16T08:25:25.282Z,31.40
2018-08-16T08:27:58.716Z,31.77
2018-08-16T08:30:34.223Z,31.50
2018-08-16T08:33:07.672Z,31.10
2018-08-16T08:35:41.142Z,31.12
2018-08-16T08:38:16.711Z,31.73
2018-08-16T08:40:50.152Z,31.77
2018-08-16T08:43:35.282Z,31.10
2018-08-16T08:46:08.776Z,31.20
2018-08-16T08:48:42.226Z,31.35
2018-08-16T08:51:15.712Z,31.85
2018-08-16T08:54:25.474Z,31.15
2018-08-16T08:57:10.774Z,30.48
2018-08-16T08:59:44.263Z,31.30
2018-08-16T09:02:17.776Z,31.55
2018-08-16T09:04:51.528Z,32.78
2018-08-16T09:07:25.354Z,31.57
2018-08-16T09:11:13.854Z,31.33
2018-08-16T09:14:06.059Z,31.60
2018-08-16T09:16:41.638Z,31.02
2018-08-16T09:19:15.079Z,31.42
2018-08-16T09:21:48.548Z,30.57
2018-08-16T09:24:22.016Z,30.95
2018-08-16T09:26:55.460Z,30.75
2018-08-16T09:30:38.761Z,31.27
2018-08-16T09:33:23.500Z,30.75
2018-08-16T09:35:56.950Z,31.48
2018-08-16T09:38:30.408Z,30.68
2018-08-16T09:41:03.918Z,30.55
2018-08-16T09:43:37.332Z,31.42
2018-08-16T09:46:53.707Z,31.10
2018-08-16T09:49:27.641Z,31.42
2018-08-16T09:52:01.171Z,30.72
2018-08-16T09:54:34.694Z,31.07
2018-08-16T09:57:09.194Z,30.50
2018-08-16T09:59:42.682Z,30.95
2018-08-16T10:02:17.541Z,30.77
2018-08-16T10:04:50.871Z,31.40
2018-08-16T10:07:24.290Z,31.30
2018-08-16T10:09:57.760Z,30.75
2018-08-16T10:12:31.170Z,30.17
2018-08-16T10:15:04.928Z,30.55
2018-08-16T10:17:38.351Z,30.70
2018-08-16T10:20:11.839Z,30.72
2018-08-16T10:22:45.278Z,30.75
2018-08-16T10:25:18.711Z,30.72
2018-08-16T10:27:52.141Z,31.35
2018-08-16T10:30:25.607Z,31.07
2018-08-16T10:32:59.048Z,30.75
2018-08-16T10:35:32.482Z,31.55
2018-08-16T10:38:06.054Z,31.42
2018-08-16T10:40:39.502Z,31.12
2018-08-16T10:43:12.927Z,30.75
2018-08-16T10:45:46.426Z,31.40
2018-08-16T10:48:19.859Z,30.88
2018-08-16T10:50:53.311Z,30.97
2018-08-16T10:53:27.154Z,30.70
2018-08-16T10:56:01.183Z,30.55
2018-08-16T10:58:34.603Z,31.20
2018-08-16T11:01:08.096Z,30.92
2018-08-16T11:03:41.575Z,31.52
2018-08-16T11:06:15.088Z,31.15
2018-08-16T11:08:48.515Z,31.02
2018-08-16T11:11:21.954Z,32.23
2018-08-16T11:13:55.358Z,31.37
2018-08-16T11:16:28.794Z,31.80
2018-08-16T11:19:02.325Z,31.05
2018-08-16T11:21:35.721Z,31.48
2018-08-16T11:24:09.134Z,31.33
2018-08-16T11:26:42.603Z,31.02
2018-08-16T11:29:16.054Z,31.10
2018-08-16T11:31:49.534Z,30.92
2018-08-16T11:34:22.967Z,32.38
2018-08-16T11:36:56.423Z,31.15
2018-08-16T11:39:29.898Z,31.97
2018-08-16T11:42:03.381Z,30.52
2018-08-16T11:44:36.797Z,30.55
2018-08-16T11:47:10.272Z,31.25
2018-08-16T11:49:43.707Z,31.60
2018-08-16T11:52:17.189Z,30.65
2018-08-16T11:54:50.606Z,31.12
2018-08-16T11:57:24.060Z,30.70
2018-08-16T11:59:57.500Z,31.25
2018-08-16T12:02:30.967Z,31.40
2018-08-16T12:05:04.474Z,31.42
2018-08-16T12:07:37.987Z,31.87
2018-08-16T12:10:11.397Z,31.82
2018-08-16T12:12:44.861Z,31.48
2018-08-16T12:15:18.395Z,31.07
2018-08-16T12:17:51.792Z,31.10
2018-08-16T12:20:25.217Z,31.23
2018-08-16T12:22:58.698Z,30.75
2018-08-16T12:25:32.129Z,31.23
2018-08-16T12:28:05.578Z,31.40
2018-08-16T12:30:39.042Z,31.37
2018-08-16T12:33:12.475Z,31.42
2018-08-16T12:35:45.898Z,31.15
2018-08-16T12:38:19.363Z,31.30
2018-08-16T12:40:52.800Z,30.90
2018-08-16T12:43:32.683Z,31.15
2018-08-16T12:46:06.133Z,31.27
2018-08-16T12:48:39.554Z,31.10
2018-08-16T12:51:13.002Z,30.70
2018-08-16T12:53:46.431Z,30.88
2018-08-16T12:56:19.866Z,31.42
2018-08-16T12:58:53.301Z,30.77
2018-08-16T13:01:27.193Z,30.75
2018-08-16T13:04:00.654Z,31.60
2018-08-16T13:06:34.088Z,31.70
2018-08-16T13:09:09.049Z,31.68
2018-08-16T13:11:42.467Z,31.30
2018-08-16T13:14:15.907Z,30.90
2018-08-16T13:16:49.355Z,30.90
2018-08-16T13:19:22.786Z,31.90
2018-08-16T13:21:56.219Z,31.40
2018-08-16T13:24:29.663Z,31.37
2018-08-16T13:27:03.163Z,31.30
2018-08-16T13:29:36.615Z,31.42
2018-08-16T13:32:10.048Z,31.40
2018-08-16T13:34:43.486Z,31.75
2018-08-16T13:37:16.981Z,31.60
2018-08-16T13:39:50.406Z,31.30
2018-08-16T13:42:23.939Z,31.60
2018-08-16T13:44:57.295Z,31.25
2018-08-16T13:47:30.746Z,32.05
2018-08-16T13:50:04.337Z,32.13
2018-08-16T13:52:37.767Z,31.45
2018-08-16T13:55:11.217Z,31.25
2018-08-16T13:57:44.636Z,31.60
2018-08-16T14:00:18.078Z,31.48
2018-08-16T14:02:52.625Z,31.33
2018-08-16T14:05:26.059Z,31.52
2018-08-16T14:07:59.518Z,32.28
2018-08-16T14:10:32.946Z,31.60
2018-08-16T14:13:06.427Z,31.42
2018-08-16T14:15:39.890Z,31.33
2018-08-16T14:18:13.443Z,31.57
2018-08-16T14:20:46.874Z,31.68
2018-08-16T14:23:20.284Z,31.55
2018-08-16T14:25:53.732Z,31.23
2018-08-16T14:28:27.143Z,31.60
2018-08-16T14:31:00.669Z,31.80
2018-08-16T14:33:34.148Z,31.87
2018-08-16T14:36:07.602Z,32.45
2018-08-16T14:38:41.032Z,31.77
2018-08-16T14:41:14.468Z,31.62
2018-08-16T14:43:48.017Z,31.50
2018-08-16T14:46:21.475Z,31.65
2018-08-16T14:48:54.914Z,31.82
2018-08-16T14:51:29.054Z,31.23
2018-08-16T14:54:02.504Z,31.40
2018-08-16T14:56:35.923Z,31.57
2018-08-16T14:59:09.359Z,31.60
2018-08-16T15:01:43.128Z,31.82
2018-08-16T15:04:16.547Z,31.87
2018-08-16T15:06:49.982Z,31.85
2018-08-16T15:09:23.411Z,31.50
2018-08-16T15:11:56.898Z,31.42
2018-08-16T15:14:30.326Z,31.30
2018-08-16T15:17:03.823Z,31.45
2018-08-16T15:19:37.237Z,31.33
2018-08-16T15:22:10.663Z,31.55
2018-08-16T15:24:44.086Z,31.42
2018-08-16T15:27:17.587Z,31.30
2018-08-16T15:29:51.001Z,31.97
2018-08-16T15:32:24.571Z,31.17
2018-08-16T15:34:57.900Z,31.12
2018-08-16T15:37:31.440Z,31.37
2018-08-16T15:40:04.918Z,31.48
2018-08-16T15:42:38.355Z,31.17
2018-08-16T15:45:11.767Z,30.97
2018-08-16T15:47:45.198Z,31.87
2018-08-16T15:50:18.682Z,30.88
2018-08-16T15:52:52.208Z,32.33
2018-08-16T15:55:25.622Z,31.35
2018-08-16T15:57:59.068Z,32.30
2018-08-16T16:00:32.478Z,32.40
2018-08-16T16:03:06.446Z,31.93
2018-08-16T16:05:39.919Z,31.82
2018-08-16T16:08:13.355Z,31.45
2018-08-16T16:10:46.787Z,32.25
2018-08-16T16:13:20.288Z,30.75
2018-08-16T16:15:53.714Z,31.73
2018-08-16T16:18:27.165Z,31.75
2018-08-16T16:21:00.597Z,31.05
2018-08-16T16:23:34.016Z,31.00
2018-08-16T16:26:07.496Z,31.37
2018-08-16T16:28:40.930Z,31.37
2018-08-16T16:31:14.402Z,31.70
2018-08-16T16:33:47.811Z,31.35
2018-08-16T16:36:21.275Z,31.80
2018-08-16T16:38:54.697Z,31.77
2018-08-16T16:41:28.122Z,31.42
2018-08-16T16:44:01.554Z,31.60
2018-08-16T16:46:35.051Z,32.13
2018-08-16T16:49:08.502Z,31.87
2018-08-16T16:51:41.942Z,31.75
2018-08-16T16:54:15.351Z,31.02
2018-08-16T16:56:48.806Z,31.05
2018-08-16T16:59:22.246Z,31.37
2018-08-16T17:01:55.691Z,31.30
2018-08-16T17:04:29.119Z,32.03
2018-08-16T17:07:02.619Z,31.30
2018-08-16T17:09:36.051Z,31.48
2018-08-16T17:12:09.542Z,31.05
2018-08-16T17:14:42.983Z,32.00
2018-08-16T17:17:16.432Z,31.55
2018-08-16T17:19:50.109Z,31.77
2018-08-16T17:22:23.574Z,31.12
2018-08-16T17:24:57.015Z,31.97
2018-08-16T17:27:30.450Z,31.40
2018-08-16T17:30:04.794Z,31.82
2018-08-16T17:32:38.248Z,31.48
2018-08-16T17:35:11.679Z,31.52
2018-08-16T17:37:45.214Z,31.62
2018-08-16T17:40:18.688Z,31.85
2018-08-16T17:42:52.128Z,31.27
2018-08-16T17:45:25.526Z,30.97
2018-08-16T17:47:58.997Z,31.60
2018-08-16T17:50:32.427Z,31.60
2018-08-16T17:53:05.881Z,31.73
2018-08-16T17:55:39.359Z,31.68
2018-08-16T17:58:12.790Z,31.95
2018-08-16T18:00:46.207Z,31.30
2018-08-16T18:03:19.706Z,31.57
2018-08-16T18:05:53.148Z,31.35
2018-08-16T18:08:26.587Z,31.95
2018-08-16T18:11:00.043Z,31.65
2018-08-16T18:13:33.490Z,31.48
2018-08-16T18:16:06.933Z,32.00
2018-08-16T18:18:40.372Z,31.37
2018-08-16T18:21:13.816Z,31.48
2018-08-16T18:23:47.250Z,32.08
2018-08-16T18:26:20.680Z,31.77
2018-08-16T18:28:54.103Z,31.57
2018-08-16T18:31:27.576Z,31.62
2018-08-16T18:34:01.024Z,31.60
2018-08-16T18:36:34.475Z,31.80
2018-08-16T18:39:08.912Z,31.82
2018-08-16T18:41:42.327Z,31.45
2018-08-16T18:44:15.758Z,31.60
2018-08-16T18:46:49.192Z,32.20
2018-08-16T18:49:22.634Z,31.45
2018-08-16T18:51:56.254Z,30.95
2018-08-16T18:54:29.615Z,31.37
2018-08-16T18:57:03.063Z,32.00
2018-08-16T18:59:36.573Z,32.28
2018-08-16T19:02:09.936Z,31.97
2018-08-16T19:04:43.409Z,31.62
2018-08-16T19:07:16.813Z,31.37
2018-08-16T19:09:50.263Z,32.08
2018-08-16T19:12:23.679Z,32.08
2018-08-16T19:14:57.111Z,31.15
2018-08-16T19:17:30.771Z,31.77
2018-08-16T19:20:04.363Z,31.93
2018-08-16T19:22:37.770Z,32.35
2018-08-16T19:25:11.202Z,31.55
2018-08-16T19:27:44.660Z,31.85
2018-08-16T19:30:18.106Z,32.08
2018-08-16T19:32:51.542Z,31.15
2018-08-16T19:35:25.002Z,31.73
2018-08-16T19:37:58.442Z,31.82
2018-08-16T19:40:31.874Z,31.75
2018-08-16T19:43:05.358Z,32.28
2018-08-16T19:45:38.826Z,31.82
2018-08-16T19:48:12.367Z,31.50
2018-08-16T19:50:45.779Z,31.75
2018-08-16T19:53:19.223Z,31.52
2018-08-16T19:55:52.654Z,31.62
2018-08-16T19:58:26.078Z,31.85
2018-08-16T20:00:59.596Z,31.87
2018-08-16T20:03:33.051Z,31.50
2018-08-16T20:06:06.596Z,31.80
2018-08-16T20:08:40.062Z,31.90
2018-08-16T20:11:13.524Z,32.75
2018-08-16T20:13:46.937Z,31.48
2018-08-16T20:16:20.378Z,31.95
2018-08-16T20:18:53.808Z,32.38
2018-08-16T20:21:27.289Z,32.38
2018-08-16T20:24:00.768Z,31.52
2018-08-16T20:26:34.278Z,31.65
2018-08-16T20:29:07.711Z,31.60
2018-08-16T20:31:41.157Z,32.30
2018-08-16T20:34:14.566Z,31.87
2018-08-16T20:36:47.998Z,32.17
2018-08-16T20:39:21.422Z,31.87
2018-08-16T20:41:54.936Z,31.97
2018-08-16T20:44:28.344Z,32.05
2018-08-16T20:47:01.800Z,31.85
2018-08-16T20:49:35.207Z,31.95
2018-08-16T20:52:08.795Z,31.12
2018-08-16T20:54:42.215Z,31.45
2018-08-16T20:57:15.695Z,32.08
2018-08-16T20:59:49.092Z,31.65
2018-08-16T21:02:22.555Z,31.97
2018-08-16T21:04:56.062Z,32.15
2018-08-16T21:07:29.499Z,32.17
2018-08-16T21:10:03.016Z,31.80
2018-08-16T21:12:36.458Z,31.87
2018-08-16T21:15:10.042Z,31.52
2018-08-16T21:17:43.483Z,32.17
2018-08-16T21:20:16.907Z,32.35
2018-08-16T21:22:50.342Z,31.48
2018-08-16T21:25:23.754Z,32.08
2018-08-16T21:27:57.264Z,32.58
2018-08-16T21:30:30.678Z,31.87
2018-08-16T21:33:04.135Z,32.05
2018-08-16T21:35:37.562Z,32.45
2018-08-16T21:38:10.981Z,31.80
2018-08-16T21:40:44.421Z,31.80
2018-08-16T21:43:17.867Z,31.93
2018-08-16T21:45:51.275Z,32.05
2018-08-16T21:48:24.710Z,31.55
2018-08-16T21:50:58.114Z,31.68
2018-08-16T21:53:31.567Z,31.30
2018-08-16T21:56:05.030Z,31.17
2018-08-16T21:58:38.464Z,31.30
2018-08-16T22:01:11.913Z,31.25
2018-08-16T22:03:45.346Z,31.20
2018-08-16T22:06:30.067Z,31.62
2018-08-16T22:09:03.702Z,31.85
2018-08-16T22:11:37.119Z,31.33
2018-08-16T22:14:10.565Z,31.23
2018-08-16T22:16:43.990Z,31.95
2018-08-16T22:19:17.432Z,31.35
2018-08-16T22:21:50.875Z,30.70
2018-08-16T22:24:24.334Z,31.40
2018-08-16T22:26:57.758Z,31.23
2018-08-16T22:29:31.191Z,31.40
2018-08-16T22:32:04.654Z,31.27
2018-08-16T22:34:38.083Z,31.25
2018-08-16T22:37:11.499Z,31.40
2018-08-16T22:39:44.955Z,31.27
2018-08-16T22:42:18.357Z,30.92
2018-08-16T22:44:51.795Z,31.37
2018-08-16T22:47:25.214Z,31.25
2018-08-16T22:49:58.687Z,30.77
2018-08-16T22:52:32.086Z,30.60
2018-08-16T22:55:06.298Z,30.85
2018-08-16T22:57:39.712Z,30.30
2018-08-16T23:00:13.203Z,31.05
2018-08-16T23:02:46.617Z,31.05
2018-08-16T23:05:20.052Z,30.80
2018-08-16T23:07:53.490Z,31.05
2018-08-16T23:10:26.942Z,30.80
2018-08-16T23:13:00.408Z,31.52
2018-08-16T23:15:33.915Z,30.95
2018-08-16T23:18:07.508Z,31.40
2018-08-16T23:20:40.942Z,31.48
2018-08-16T23:23:14.410Z,30.95
2018-08-16T23:25:47.851Z,31.12
2018-08-16T23:28:21.285Z,30.88
2018-08-16T23:30:54.709Z,31.52
2018-08-16T23:33:28.139Z,31.25
2018-08-16T23:36:01.562Z,31.25
2018-08-16T23:38:35.029Z,31.23
2018-08-16T23:41:08.470Z,30.68
2018-08-16T23:43:41.887Z,31.02
2018-08-16T23:46:15.326Z,31.10
2018-08-16T23:48:48.801Z,30.70
2018-08-16T23:51:22.238Z,31.05
2018-08-16T23:53:55.682Z,31.37
2018-08-16T23:56:29.153Z,31.20
2018-08-16T23:59:02.620Z,31.48
